Terminal Aerodrome Forecast
Issued by NWS

Home | Current Version | Previous Version | Text Only | Print | Product List | Glossary On
Versions: 1 2 3 4 5 6 7 8 9 10 11 12 13 14
403
FTAK31 PAJN 221129
TAFAYA
TAF
PAYA 221129Z 2212/2312 00000KT P6SM BKN200
     FM221700 06005KT P6SM SCT040 BKN060 OVC100 PROB30 2222/2302 6SM
      -SN BKN035 OVC060
     FM230200 07008KT 2SM -SN SCT007 BKN015
     FM230800 12009KT 1SM -SN SCT003 OVC007
      AMD LTD TO CLD VIS AND WIND 2301/2309=

USA.gov is the U.S. government's official web portal to all federal, state and local government web resources and services.